Time;durP1;ratioP1;P1;durP2;ratioP2;P2;SDS_P1;SDS_P2;PMS_P1;PMS_P2;Temp;Humidity;BMP_temperature;BMP_pressure;BME280_temperature;BME280_humidity;BME280_pressure;Samples;Min_cycle;Max_cycle;Signal;HPM_P1;HPM_P2
2023/08/03 00:00:18;;;;;;;12.90;3.13;;;;;;;16.53;100.00;98643.97;5114076;28;20036;-56
2023/08/03 00:02:44;;;;;;;14.30;3.00;;;;;;;16.92;100.00;98713.94;5114051;28;20034;-54
2023/08/03 00:05:10;;;;;;;14.10;2.70;;;;;;;16.86;100.00;98707.34;5095258;28;20024;-51
2023/08/03 00:07:35;;;;;;;14.02;2.47;;;;;;;16.98;100.00;98724.84;5091462;28;20085;-52
2023/08/03 00:10:01;;;;;;;7.90;2.58;;;;;;;16.60;100.00;98658.44;5103339;28;20032;-55
2023/08/03 00:12:27;;;;;;;10.10;2.47;;;;;;;16.51;100.00;98656.56;5114332;28;20427;-52
2023/08/03 00:14:52;;;;;;;7.22;2.05;;;;;;;16.93;100.00;98739.53;5095647;28;20066;-54
2023/08/03 00:17:18;;;;;;;13.25;2.50;;;;;;;16.49;100.00;98667.31;5078527;28;20032;-57
2023/08/03 00:19:43;;;;;;;6.93;1.73;;;;;;;16.54;100.00;98673.09;5095480;28;20039;-53
2023/08/03 00:22:09;;;;;;;8.60;1.85;;;;;;;16.84;100.00;98742.03;5113708;28;20508;-52
2023/08/03 00:24:34;;;;;;;9.73;2.63;;;;;;;16.89;100.00;98749.59;5095709;28;20043;-52
2023/08/03 00:27:00;;;;;;;9.48;1.98;;;;;;;16.93;100.00;98750.16;5095467;28;20092;-54
2023/08/03 00:29:25;;;;;;;8.82;2.40;;;;;;;16.93;100.00;98747.50;5113753;28;20054;-52
2023/08/03 00:31:50;;;;;;;9.48;2.25;;;;;;;16.96;100.00;98761.31;5113826;28;20028;-57
2023/08/03 00:34:16;;;;;;;9.07;2.45;;;;;;;16.98;100.00;98753.22;5107022;28;20074;-53
2023/08/03 00:36:41;;;;;;;7.10;1.98;;;;;;;16.45;100.00;98678.38;5093168;28;20128;-55
2023/08/03 00:39:06;;;;;;;12.63;2.63;;;;;;;16.53;100.00;98691.78;5093346;28;20090;-56
2023/08/03 00:41:32;;;;;;;11.98;2.75;;;;;;;16.91;100.00;98752.09;5075062;28;20036;-58
2023/08/03 00:43:57;;;;;;;10.32;2.95;;;;;;;16.71;100.00;98725.53;5093069;28;20044;-55
2023/08/03 00:46:22;;;;;;;13.27;3.22;;;;;;;16.80;100.00;98751.28;5093235;28;20032;-53
2023/08/03 00:48:48;;;;;;;10.20;3.70;;;;;;;16.77;100.00;98759.53;5093263;28;20047;-55
2023/08/03 00:51:13;;;;;;;12.30;3.35;;;;;;;16.86;100.00;98779.09;5091420;28;20111;-54
2023/08/03 00:53:39;;;;;;;10.27;3.55;;;;;;;16.79;100.00;98785.94;5092946;28;20056;-56
2023/08/03 00:56:05;;;;;;;12.68;3.47;;;;;;;16.36;100.00;98713.72;5075210;28;20066;-54
2023/08/03 00:58:30;;;;;;;12.52;3.45;;;;;;;16.32;100.00;98721.94;5058167;28;20106;-56
2023/08/03 01:00:55;;;;;;;14.23;4.88;;;;;;;16.36;100.00;98727.00;5074962;28;20115;-56
2023/08/03 01:03:21;;;;;;;12.43;4.60;;;;;;;16.76;100.00;98794.19;5074735;28;20481;-56
2023/08/03 01:05:46;;;;;;;14.27;4.45;;;;;;;16.44;100.00;98748.38;5092519;28;20223;-55
2023/08/03 01:08:11;;;;;;;12.10;4.60;;;;;;;16.75;100.00;98800.50;5091866;28;20028;-56
2023/08/03 01:10:37;;;;;;;9.32;5.05;;;;;;;16.76;100.00;98803.00;5092901;28;20032;-56
2023/08/03 01:13:02;;;;;;;15.77;5.18;;;;;;;16.36;100.00;98737.59;5074632;28;20039;-54
2023/08/03 01:15:28;;;;;;;9.20;5.05;;;;;;;16.66;100.00;98791.53;5092992;28;20080;-55
2023/08/03 01:17:53;;;;;;;8.88;4.70;;;;;;;16.69;100.00;98803.69;5092575;28;20035;-55
2023/08/03 01:20:21;;;;;;;11.25;5.18;;;;;;;16.56;100.00;98790.66;5092466;28;20394;-56
2023/08/03 01:22:46;;;;;;;12.57;5.75;;;;;;;16.68;100.00;98812.63;5092490;28;20471;-56
2023/08/03 01:25:12;;;;;;;8.43;5.00;;;;;;;16.63;100.00;98802.44;5092135;28;20085;-53
2023/08/03 01:27:37;;;;;;;9.90;4.90;;;;;;;16.55;100.00;98790.81;5092194;28;20114;-53
2023/08/03 01:30:04;;;;;;;11.40;5.30;;;;;;;16.70;100.00;98819.47;5074400;28;20149;-54
2023/08/03 01:32:30;;;;;;;6.78;4.40;;;;;;;16.67;100.00;98808.28;5092300;28;20042;-57
2023/08/03 01:34:55;;;;;;;16.63;5.22;;;;;;;16.67;100.00;98819.75;5057449;28;20036;-56
2023/08/03 01:37:20;;;;;;;10.85;4.60;;;;;;;16.64;100.00;98821.84;5092368;28;20024;-55
2023/08/03 01:39:46;;;;;;;11.63;4.43;;;;;;;16.65;100.00;98818.22;5092541;28;20050;-55
2023/08/03 01:42:12;;;;;;;13.68;4.63;;;;;;;16.61;100.00;98814.13;5106723;28;20103;-53
2023/08/03 01:44:38;;;;;;;13.77;5.15;;;;;;;16.32;100.00;98774.19;5112555;28;20512;-53
2023/08/03 01:47:04;;;;;;;12.85;4.65;;;;;;;16.44;100.00;98798.84;5094515;28;20040;-53
2023/08/03 01:49:30;;;;;;;10.85;4.20;;;;;;;16.27;100.00;98765.81;5094580;28;20036;-53
2023/08/03 01:51:56;;;;;;;10.93;4.13;;;;;;;16.46;100.00;98815.50;5112523;28;20383;-54
2023/08/03 01:54:21;;;;;;;8.50;4.00;;;;;;;16.26;100.00;98782.72;5112716;28;20042;-53
2023/08/03 01:56:47;;;;;;;6.95;4.00;;;;;;;16.54;100.00;98829.81;5094235;28;20502;-53
2023/08/03 01:59:12;;;;;;;11.65;4.50;;;;;;;16.08;100.00;98749.84;5095475;28;20498;-55
2023/08/03 02:01:38;;;;;;;10.88;4.18;;;;;;;16.59;100.00;98814.28;5092103;28;20407;-54
2023/08/03 02:04:04;;;;;;;11.77;4.13;;;;;;;16.42;100.00;98771.59;5073982;28;20535;-51
2023/08/03 02:06:29;;;;;;;10.55;4.10;;;;;;;16.58;100.00;98809.94;5091847;28;20048;-54
2023/08/03 02:08:54;;;;;;;7.25;3.53;;;;;;;16.18;100.00;98756.00;5091908;28;20423;-58
2023/08/03 02:11:20;;;;;;;5.47;3.25;;;;;;;16.62;100.00;98829.13;5092079;28;20047;-51
2023/08/03 02:13:45;;;;;;;6.22;2.42;;;;;;;16.14;100.00;98751.97;5090100;28;20039;-54
2023/08/03 02:16:11;;;;;;;5.95;2.50;;;;;;;16.43;100.00;98824.56;5092387;28;20379;-51
2023/08/03 02:18:38;;;;;;;7.00;2.90;;;;;;;16.37;100.00;98811.00;5091758;28;20422;-56
2023/08/03 02:21:04;;;;;;;6.25;2.45;;;;;;;16.43;100.00;98813.94;5091653;28;20050;-56
2023/08/03 02:23:29;;;;;;;10.15;3.55;;;;;;;16.53;100.00;98840.50;5091954;28;20115;-54
2023/08/03 02:25:55;;;;;;;6.63;2.45;;;;;;;16.51;100.00;98848.63;5091753;28;20527;-55
2023/08/03 02:28:20;;;;;;;4.65;2.47;;;;;;;16.53;100.00;98841.34;5091935;28;20460;-50
2023/08/03 02:30:45;;;;;;;8.05;2.53;;;;;;;16.55;100.00;98833.31;5094407;28;20636;-57
2023/08/03 02:33:11;;;;;;;2.90;1.70;;;;;;;16.15;100.00;98782.81;5095794;28;20071;-56
2023/08/03 02:35:39;;;;;;;6.68;2.10;;;;;;;16.50;100.00;98838.13;5077560;28;20116;-51
2023/08/03 02:38:05;;;;;;;3.38;2.15;;;;;;;16.43;100.00;98848.47;5095742;28;20032;-54
2023/08/03 02:40:30;;;;;;;4.47;2.25;;;;;;;16.36;100.00;98849.13;5095615;28;20042;-55
2023/08/03 02:42:55;;;;;;;8.32;2.67;;;;;;;16.13;100.00;98829.88;5095808;28;20039;-57
2023/08/03 02:45:20;;;;;;;6.22;2.30;;;;;;;16.24;100.00;98854.53;5095511;28;20376;-55
2023/08/03 02:47:46;;;;;;;5.82;2.80;;;;;;;16.30;100.00;98874.41;5093625;28;20486;-52
2023/08/03 02:50:11;;;;;;;6.50;2.90;;;;;;;16.33;100.00;98861.69;5115783;28;20534;-55
2023/08/03 02:52:36;;;;;;;7.55;2.88;;;;;;;16.37;100.00;98870.25;5115896;28;20036;-56
2023/08/03 02:55:02;;;;;;;6.22;2.25;;;;;;;16.34;100.00;98858.06;5115854;28;20110;-55
2023/08/03 02:57:27;;;;;;;8.80;2.33;;;;;;;16.44;100.00;98868.72;5115652;28;20172;-54
2023/08/03 02:59:52;;;;;;;6.57;2.35;;;;;;;16.11;100.00;98806.13;5115882;28;20114;-55
2023/08/03 03:02:18;;;;;;;5.30;3.15;;;;;;;16.37;100.00;98845.50;5116033;28;20118;-57
2023/08/03 03:04:43;;;;;;;8.57;2.67;;;;;;;16.15;100.00;98810.19;5105126;28;20501;-55
2023/08/03 03:07:08;;;;;;;11.00;3.20;;;;;;;16.56;100.00;98883.63;5095231;28;20044;-58
2023/08/03 03:09:34;;;;;;;7.00;3.05;;;;;;;16.10;100.00;98814.22;5095312;28;20047;-56
2023/08/03 03:11:59;;;;;;;7.72;3.33;;;;;;;16.49;100.00;98868.34;5095055;28;20028;-55
2023/08/03 03:14:24;;;;;;;11.38;3.13;;;;;;;16.10;100.00;98815.09;5094915;28;20032;-59
2023/08/03 03:16:50;;;;;;;13.02;3.53;;;;;;;16.20;100.00;98833.69;5094870;28;20043;-54
2023/08/03 03:19:15;;;;;;;12.15;3.10;;;;;;;16.57;100.00;98913.69;5076507;28;20043;-55
2023/08/03 03:21:40;;;;;;;11.35;2.55;;;;;;;16.55;100.00;98910.34;5094148;28;20444;-55
2023/08/03 03:24:06;;;;;;;12.23;3.17;;;;;;;16.20;100.00;98836.34;5095026;28;20043;-57
2023/08/03 03:26:31;;;;;;;11.20;2.83;;;;;;;16.54;100.00;98911.28;5095062;28;20379;-56
2023/08/03 03:28:56;;;;;;;9.00;2.28;;;;;;;16.17;100.00;98857.88;5094672;28;20386;-54
2023/08/03 03:31:22;;;;;;;7.95;2.53;;;;;;;16.50;100.00;98915.16;5094570;28;20051;-52
2023/08/03 03:33:47;;;;;;;8.50;2.90;;;;;;;16.08;100.00;98848.84;5094636;28;20046;-57
2023/08/03 03:36:12;;;;;;;6.50;1.83;;;;;;;16.47;100.00;98926.03;5093423;28;20036;-55
2023/08/03 03:38:38;;;;;;;9.80;2.03;;;;;;;16.05;100.00;98854.41;5094003;28;20094;-58
2023/08/03 03:41:04;;;;;;;8.65;1.77;;;;;;;16.38;100.00;98911.75;5076394;28;20024;-57
2023/08/03 03:43:29;;;;;;;7.40;2.13;;;;;;;16.09;100.00;98861.16;5094376;28;20028;-54
2023/08/03 03:45:54;;;;;;;10.40;1.75;;;;;;;16.50;100.00;98915.16;5094344;28;20199;-54
2023/08/03 03:48:20;;;;;;;11.07;2.22;;;;;;;16.47;100.00;98932.19;5094221;28;20120;-54
2023/08/03 03:50:45;;;;;;;7.55;2.30;;;;;;;16.49;100.00;98935.53;5094661;28;20063;-53
2023/08/03 03:53:10;;;;;;;10.73;2.08;;;;;;;16.28;100.00;98900.25;5094756;28;20036;-55
2023/08/03 03:55:36;;;;;;;9.85;2.25;;;;;;;16.48;100.00;98933.03;5093617;28;20044;-57
2023/08/03 03:58:02;;;;;;;12.60;3.05;;;;;;;16.08;100.00;98875.41;5093876;28;20047;-52
2023/08/03 04:00:28;;;;;;;12.70;3.30;;;;;;;15.99;100.00;98867.41;5093944;28;20028;-55
2023/08/03 04:02:53;;;;;;;12.30;2.80;;;;;;;16.40;100.00;98938.19;5094076;28;20119;-57
2023/08/03 04:05:19;;;;;;;13.40;3.20;;;;;;;16.12;100.00;98908.66;5094124;28;20149;-56
2023/08/03 04:07:44;;;;;;;18.33;3.67;;;;;;;16.49;100.00;98975.38;5079862;28;20032;-53
2023/08/03 04:10:09;;;;;;;16.80;3.88;;;;;;;16.16;100.00;98909.25;5094037;28;20027;-53
2023/08/03 04:12:35;;;;;;;15.52;4.50;;;;;;;16.06;100.00;98906.53;5094018;28;20032;-55
2023/08/03 04:15:00;;;;;;;23.83;5.47;;;;;;;16.49;100.00;98974.56;5093739;28;20119;-55
2023/08/03 04:17:25;;;;;;;21.80;5.53;;;;;;;16.50;100.00;98979.72;5093595;28;20119;-57
2023/08/03 04:19:50;;;;;;;26.45;6.07;;;;;;;16.48;100.00;98979.03;5075407;28;20078;-51
2023/08/03 04:22:16;;;;;;;26.60;6.43;;;;;;;16.47;100.00;98987.13;5093764;28;20069;-56
2023/08/03 04:24:41;;;;;;;28.15;6.03;;;;;;;16.12;100.00;98921.09;5092747;28;20390;-57
2023/08/03 04:27:07;;;;;;;18.27;4.85;;;;;;;16.05;100.00;98922.59;5093407;28;20044;-53
2023/08/03 04:29:32;;;;;;;22.13;5.07;;;;;;;16.10;100.00;98931.00;5093459;28;20051;-55
2023/08/03 04:31:57;;;;;;;18.25;4.65;;;;;;;16.03;100.00;98925.38;5093373;28;20036;-57
2023/08/03 04:34:23;;;;;;;19.95;4.53;;;;;;;16.39;100.00;99003.72;5093372;28;20063;-56
2023/08/03 04:36:48;;;;;;;19.90;4.85;;;;;;;16.00;100.00;98935.41;5075627;28;20044;-53
2023/08/03 04:39:13;;;;;;;18.52;4.25;;;;;;;16.41;100.00;99014.19;5093365;28;20036;-55
2023/08/03 04:41:39;;;;;;;18.48;4.55;;;;;;;16.43;100.00;99031.72;5092686;28;20044;-57
2023/08/03 04:44:04;;;;;;;22.02;5.05;;;;;;;16.40;100.00;99020.50;5092786;28;20047;-55
2023/08/03 04:46:29;;;;;;;13.55;3.78;;;;;;;16.00;100.00;98946.03;5093144;28;20089;-57
2023/08/03 04:48:55;;;;;;;12.38;3.15;;;;;;;16.38;100.00;99017.94;5092991;28;20059;-55
2023/08/03 04:51:20;;;;;;;17.42;3.63;;;;;;;15.97;100.00;98970.16;5093265;28;20071;-56
2023/08/03 04:53:45;;;;;;;17.20;3.25;;;;;;;16.29;100.00;99022.22;5093186;28;20396;-58
2023/08/03 04:56:11;;;;;;;12.48;2.92;;;;;;;16.22;100.00;99014.91;5092212;28;20444;-57
2023/08/03 04:58:36;;;;;;;12.32;3.30;;;;;;;15.87;100.00;98964.81;5092780;28;20474;-57
2023/08/03 05:01:01;;;;;;;12.13;3.05;;;;;;;16.29;100.00;99035.50;5093135;28;20459;-56
2023/08/03 05:03:27;;;;;;;16.98;3.10;;;;;;;16.29;100.00;99032.00;5092891;28;20114;-56
2023/08/03 05:05:52;;;;;;;11.00;3.30;;;;;;;15.90;100.00;98959.25;5092926;28;20028;-54
2023/08/03 05:08:18;;;;;;;14.70;3.40;;;;;;;16.32;100.00;99035.25;5092922;28;20024;-54
2023/08/03 05:10:43;;;;;;;13.20;3.72;;;;;;;16.22;100.00;99020.22;5092629;28;20502;-55
2023/08/03 05:13:09;;;;;;;17.05;4.18;;;;;;;16.36;100.00;99033.19;5092772;28;20032;-56
2023/08/03 05:15:34;;;;;;;15.55;3.35;;;;;;;15.93;100.00;98958.97;5091834;28;20516;-55
2023/08/03 05:18:01;;;;;;;14.25;3.13;;;;;;;16.41;100.00;99040.75;5092528;28;20390;-56
2023/08/03 05:20:27;;;;;;;18.10;3.28;;;;;;;15.91;100.00;98958.25;5092282;28;20040;-55
2023/08/03 05:22:52;;;;;;;15.77;3.80;;;;;;;16.39;100.00;99029.41;5073720;28;20036;-56
2023/08/03 05:25:18;;;;;;;16.17;4.05;;;;;;;16.14;100.00;98994.31;5091843;28;20032;-56
2023/08/03 05:27:43;;;;;;;14.57;3.03;;;;;;;16.07;100.00;98957.81;5091612;28;20475;-55
2023/08/03 05:30:09;;;;;;;14.32;2.60;;;;;;;16.26;100.00;99008.38;5091305;28;20040;-57
2023/08/03 05:32:34;;;;;;;15.75;3.38;;;;;;;16.09;100.00;98971.78;5091433;28;20110;-60
2023/08/03 05:35:00;;;;;;;18.42;4.00;;;;;;;16.45;100.00;99034.22;5091689;28;20116;-56
2023/08/03 05:37:25;;;;;;;18.73;3.63;;;;;;;16.50;100.00;99050.59;5073656;28;20047;-56
2023/08/03 05:39:50;;;;;;;11.07;2.58;;;;;;;16.46;100.00;99031.41;5091599;28;20101;-56
2023/08/03 05:42:17;;;;;;;11.77;3.03;;;;;;;16.61;100.00;99037.25;5091612;28;20070;-57
2023/08/03 05:44:42;;;;;;;16.60;3.38;;;;;;;16.31;100.00;98982.28;5091549;28;20088;-57
2023/08/03 05:47:09;;;;;;;15.13;3.58;;;;;;;16.79;100.00;99054.28;5090661;28;20126;-55
2023/08/03 05:49:35;;;;;;;12.20;3.03;;;;;;;16.83;100.00;99045.09;5091630;28;20593;-57
2023/08/03 05:52:00;;;;;;;21.85;4.07;;;;;;;16.49;100.00;98988.66;5091575;28;20123;-57
2023/08/03 05:54:26;;;;;;;14.50;3.50;;;;;;;16.64;100.00;99021.06;5091544;28;20032;-57
2023/08/03 05:56:51;;;;;;;16.40;4.32;;;;;;;16.50;100.00;98986.84;5091282;28;20043;-54
2023/08/03 05:59:22;;;;;;;21.35;5.15;;;;;;;16.80;100.00;99032.91;5091284;28;20384;-57
2023/08/03 06:01:49;;;;;;;16.83;3.88;;;;;;;16.57;100.00;98996.88;5073108;28;20032;-59
2023/08/03 06:04:16;;;;;;;19.98;4.55;;;;;;;16.56;100.00;99002.28;5074195;28;20040;-58
2023/08/03 06:06:41;;;;;;;17.65;4.85;;;;;;;16.90;100.00;99064.84;5094409;28;20044;-57
2023/08/03 06:09:09;;;;;;;20.42;4.82;;;;;;;16.90;100.00;99088.75;5094967;28;20024;-56
2023/08/03 06:11:35;;;;;;;18.38;5.30;;;;;;;16.60;100.00;99031.13;5094737;28;20035;-55
2023/08/03 06:14:00;;;;;;;19.98;4.57;;;;;;;16.94;100.00;99087.53;5076741;28;20040;-60
2023/08/03 06:16:25;;;;;;;21.20;4.18;;;;;;;16.52;100.00;99017.63;5094602;28;20508;-60
2023/08/03 06:18:53;;;;;;;17.02;4.00;;;;;;;16.83;100.00;99092.94;5094739;28;20110;-56
2023/08/03 06:21:19;;;;;;;16.92;4.47;;;;;;;16.58;100.00;99043.69;5056408;28;1093168;-60
2023/08/03 06:23:46;;;;;;;17.95;5.20;;;;;;;16.96;100.00;99100.72;5076977;28;20502;-57
2023/08/03 06:26:13;;;;;;;16.92;4.50;;;;;;;16.59;100.00;99066.63;5060927;28;20458;-59
2023/08/03 06:28:38;;;;;;;13.82;4.55;;;;;;;16.97;100.00;99131.59;5095394;28;20128;-53
2023/08/03 06:31:14;;;;;;;19.08;5.07;;;;;;;16.97;100.00;99144.91;5095553;28;20122;-58
2023/08/03 06:33:39;;;;;;;22.00;5.43;;;;;;;16.97;100.00;99144.91;5077750;28;20475;-55
2023/08/03 06:36:05;;;;;;;16.83;5.55;;;;;;;16.77;100.00;99110.25;5077532;28;20055;-57
2023/08/03 06:38:32;;;;;;;18.13;5.22;;;;;;;17.05;100.00;99158.38;5077103;28;20044;-56
2023/08/03 06:40:57;;;;;;;20.73;4.85;;;;;;;16.73;100.00;99102.63;5095765;28;20052;-54
2023/08/03 06:43:23;;;;;;;21.92;5.47;;;;;;;17.18;100.00;99170.50;5077274;28;20423;-55
2023/08/03 06:45:48;;;;;;;18.83;4.68;;;;;;;17.19;100.00;99164.19;5095701;28;20040;-56
2023/08/03 06:48:14;;;;;;;17.77;4.60;;;;;;;17.34;100.00;99181.50;5094275;28;20036;-56
2023/08/03 06:50:40;;;;;;;15.38;4.47;;;;;;;17.42;100.00;99200.28;5095281;28;20031;-56
2023/08/03 06:53:05;;;;;;;16.08;3.88;;;;;;;17.47;100.00;99197.25;5077206;28;20036;-54
2023/08/03 06:55:31;;;;;;;16.80;4.68;;;;;;;17.49;100.00;99211.25;5094263;28;20036;-53
2023/08/03 06:57:57;;;;;;;12.27;3.33;;;;;;;17.09;100.00;99160.66;5076967;28;20032;-55
2023/08/03 07:00:26;;;;;;;13.02;3.70;;;;;;;17.32;100.00;99195.91;5077120;28;20035;-55
2023/08/03 07:02:52;;;;;;;8.57;2.88;;;;;;;17.54;100.00;99242.78;5095289;28;20043;-54
2023/08/03 07:05:17;;;;;;;13.70;2.95;;;;;;;17.24;100.00;99196.56;5077497;28;20241;-57
2023/08/03 07:07:43;;;;;;;9.20;3.30;;;;;;;17.59;100.00;99257.41;5095162;28;20044;-56
2023/08/03 07:10:08;;;;;;;10.20;3.10;;;;;;;17.25;100.00;99203.56;5095055;28;20036;-55
2023/08/03 07:12:34;;;;;;;7.75;2.22;;;;;;;17.66;100.00;99276.38;5094293;28;20040;-53
2023/08/03 07:15:00;;;;;;;10.90;2.67;;;;;;;17.78;100.00;99265.47;5094822;28;20036;-54
2023/08/03 07:17:25;;;;;;;4.85;2.30;;;;;;;17.72;100.00;99234.06;5095036;28;20403;-55
2023/08/03 07:19:51;;;;;;;8.88;2.10;;;;;;;17.91;100.00;99222.66;5059533;28;20750;-56
2023/08/03 07:22:23;;;;;;;6.18;1.95;;;;;;;18.39;100.00;99302.69;5094909;28;20530;-55
2023/08/03 07:24:49;;;;;;;7.82;2.00;;;;;;;18.19;100.00;99266.34;5095029;28;20028;-53
2023/08/03 07:27:15;;;;;;;4.63;1.88;;;;;;;18.46;100.00;99302.03;5093690;28;20533;-55
2023/08/03 07:29:40;;;;;;;5.85;2.00;;;;;;;18.56;100.00;99331.41;5094614;28;20040;-55
2023/08/03 07:32:06;;;;;;;4.43;1.90;;;;;;;18.69;100.00;99333.81;5093572;28;20396;-56
2023/08/03 07:34:32;;;;;;;5.07;1.90;;;;;;;18.62;100.00;99335.34;5094661;28;20032;-56
2023/08/03 07:36:58;;;;;;;9.18;2.28;;;;;;;18.69;100.00;99355.97;5076250;28;20032;-55
2023/08/03 07:39:23;;;;;;;6.10;2.30;;;;;;;18.60;100.00;99358.59;5094344;28;20043;-57
2023/08/03 07:41:49;;;;;;;9.45;2.50;;;;;;;18.23;100.00;99335.19;5094189;28;20439;-58
2023/08/03 07:44:16;;;;;;;11.75;2.55;;;;;;;18.07;100.00;99310.84;5075757;28;20046;-57
2023/08/03 07:46:42;;;;;;;8.43;2.78;;;;;;;18.46;100.00;99379.31;5075896;28;20036;-56
2023/08/03 07:49:07;;;;;;;9.50;2.45;;;;;;;18.42;100.00;99380.53;5094276;28;20165;-55
2023/08/03 07:51:32;;;;;;;6.70;2.38;;;;;;;18.06;100.00;99342.97;5076013;28;20058;-52
2023/08/03 07:53:58;;;;;;;7.45;2.60;;;;;;;18.00;100.00;99347.00;5075859;28;20066;-54
2023/08/03 07:56:23;;;;;;;9.27;2.55;;;;;;;18.34;100.00;99395.50;5093214;28;20043;-55
2023/08/03 07:58:50;;;;;;;5.35;2.05;;;;;;;18.96;100.00;99398.00;5058303;28;20036;-53
2023/08/03 08:01:16;;;;;;;5.57;2.13;;;;;;;19.69;100.00;99426.03;5093165;28;20047;-55
2023/08/03 08:03:41;;;;;;;5.88;1.80;;;;;;;20.35;100.00;99425.09;5075902;28;20039;-54
2023/08/03 08:06:08;;;;;;;6.07;2.05;;;;;;;20.84;100.00;99439.94;5074115;28;20032;-55
2023/08/03 08:08:34;;;;;;;7.65;1.50;;;;;;;20.47;100.00;99391.00;5093963;28;20032;-57
2023/08/03 08:10:59;;;;;;;3.65;1.52;;;;;;;20.81;100.00;99469.66;5075702;28;20589;-54
2023/08/03 08:13:24;;;;;;;6.57;1.90;;;;;;;20.72;100.00;99478.59;5092904;28;20043;-54
2023/08/03 08:15:50;;;;;;;5.40;1.95;;;;;;;20.25;100.00;99452.81;5075646;28;20028;-56
2023/08/03 08:18:15;;;;;;;4.40;2.10;;;;;;;20.31;100.00;99479.00;5092310;28;20048;-56
2023/08/03 08:20:40;;;;;;;7.25;1.90;;;;;;;19.81;100.00;99427.56;5114109;28;20052;-55
2023/08/03 08:23:06;;;;;;;7.13;1.85;;;;;;;19.87;100.00;99459.06;5078712;28;20073;-54
2023/08/03 08:25:33;;;;;;;6.93;1.92;;;;;;;20.70;100.00;99484.06;5095641;28;20028;-55
2023/08/03 08:27:59;;;;;;;9.68;2.05;;;;;;;21.09;100.00;99447.31;5095112;28;20044;-58
2023/08/03 08:30:24;;;;;;;8.13;2.00;;;;;;;21.40;100.00;99517.41;5113947;28;20027;-57
2023/08/03 08:32:49;;;;;;;8.40;1.88;;;;;;;21.31;100.00;99513.81;5101846;28;20071;-56
2023/08/03 08:35:15;;;;;;;8.52;2.20;;;;;;;21.29;100.00;99520.31;5093327;28;20032;-55
2023/08/03 08:37:40;;;;;;;5.88;1.45;;;;;;;21.38;100.00;99483.75;5093507;28;20036;-55
2023/08/03 08:40:11;;;;;;;5.90;1.60;;;;;;;21.76;100.00;99523.66;5093168;28;20032;-54
2023/08/03 08:42:36;;;;;;;;;;;;;;;21.70;100.00;99551.06;5093774;28;20085;-55
2023/08/03 08:45:02;;;;;;;7.50;2.17;;;;;;;21.53;100.00;99551.88;5075055;28;20367;-55
2023/08/03 08:47:27;;;;;;;7.57;1.95;;;;;;;20.64;100.00;99441.03;5074978;28;20040;-55
2023/08/03 08:49:54;;;;;;;10.80;2.50;;;;;;;20.86;100.00;99552.16;5092031;28;20051;-55
2023/08/03 08:52:19;;;;;;;5.70;2.38;;;;;;;19.65;100.00;99473.50;5075067;28;20036;-52
2023/08/03 08:54:45;;;;;;;7.57;2.30;;;;;;;19.01;100.00;99489.09;5058098;28;20387;-53
2023/08/03 08:57:10;;;;;;;8.07;2.22;;;;;;;18.86;100.00;99554.41;5074807;28;20032;-56
2023/08/03 08:59:35;;;;;;;9.80;3.20;;;;;;;18.71;100.00;99559.25;5093211;28;20039;-53
2023/08/03 09:02:02;;;;;;;9.13;2.78;;;;;;;18.53;100.00;99548.34;5093030;28;20028;-52
2023/08/03 09:04:28;;;;;;;14.73;3.83;;;;;;;18.51;100.00;99574.28;5074986;28;20043;-52
2023/08/03 09:06:53;;;;;;;14.10;4.25;;;;;;;18.46;100.00;99555.16;5091864;28;20044;-52
2023/08/03 09:09:27;;;;;;;19.42;5.53;;;;;;;18.11;100.00;99485.38;5093111;28;20047;-53
2023/08/03 09:11:55;;;;;;;19.08;5.82;;;;;;;19.05;100.00;99573.19;5092792;28;20463;-58
2023/08/03 09:14:21;;;;;;;16.25;3.80;;;;;;;19.37;100.00;99541.00;5092928;28;20032;-53
2023/08/03 09:16:46;;;;;;;20.88;4.38;;;;;;;19.52;100.00;99518.34;5092611;28;20089;-54
2023/08/03 09:19:11;;;;;;;16.23;3.80;;;;;;;20.04;100.00;99582.06;5092665;28;20501;-54
2023/08/03 09:21:37;;;;;;;11.90;3.00;;;;;;;20.77;100.00;99581.47;5090711;28;20510;-55
2023/08/03 09:24:18;;;;;;;9.18;2.45;;;;;;;21.09;100.00;99537.44;5091888;28;20372;-58
2023/08/03 09:26:44;;;;;;;9.63;2.38;;;;;;;21.09;100.00;99575.75;5074354;28;20040;-52
2023/08/03 09:29:13;;;;;;;8.70;2.45;;;;;;;20.37;100.00;99590.66;5092535;28;20152;-55
2023/08/03 09:31:39;;;;;;;8.23;2.00;;;;;;;20.29;100.00;99642.13;5092305;28;20085;-53
2023/08/03 09:34:04;;;;;;;5.65;1.63;;;;;;;19.77;100.00;99637.94;5092217;28;20115;-54
2023/08/03 09:36:29;;;;;;;9.23;1.98;;;;;;;19.86;100.00;99650.47;5092175;28;20032;-54
2023/08/03 09:39:14;;;;;;;9.30;2.35;;;;;;;19.94;100.00;99629.25;5091307;28;20038;-51
2023/08/03 09:41:39;;;;;;;9.10;1.95;;;;;;;20.18;100.00;99650.25;5056680;28;20035;-56
2023/08/03 09:44:08;;;;;;;10.07;2.35;;;;;;;20.29;100.00;99663.50;5082819;28;20084;-53
2023/08/03 09:46:34;;;;;;;5.90;1.77;;;;;;;20.66;100.00;99612.88;5073641;28;20070;-54
2023/08/03 09:49:00;;;;;;;7.25;1.95;;;;;;;21.16;100.00;99699.13;5092235;28;20062;-53
2023/08/03 09:51:29;;;;;;;10.50;2.08;;;;;;;20.99;100.00;99697.97;5092101;28;20055;-53
2023/08/03 09:54:02;;;;;;;6.57;1.50;;;;;;;21.30;100.00;99714.72;5074235;28;20475;-55
2023/08/03 09:56:31;;;;;;;3.53;1.27;;;;;;;21.69;100.00;99732.31;5074111;28;20040;-52
2023/08/03 09:58:59;;;;;;;6.32;1.70;;;;;;;21.32;100.00;99680.59;5092339;28;20032;-52
2023/08/03 10:01:25;;;;;;;7.82;2.50;;;;;;;21.88;100.00;99735.97;5091412;28;20036;-55
2023/08/03 10:04:00;;;;;;;8.00;2.17;;;;;;;21.56;100.00;99712.22;5074417;28;20402;-55
2023/08/03 10:06:33;;;;;;;9.05;2.58;;;;;;;20.65;100.00;99708.28;5092180;28;20039;-57
2023/08/03 10:09:06;;;;;;;6.03;2.78;;;;;;;20.17;100.00;99774.13;5092098;28;20050;-55
2023/08/03 10:11:41;;;;;;;5.93;2.10;;;;;;;19.30;100.00;99740.81;5091959;28;20466;-51
2023/08/03 10:14:09;;;;;;;5.13;1.80;;;;;;;18.78;100.00;99770.19;5074288;28;20035;-52
2023/08/03 10:16:35;;;;;;;6.53;1.67;;;;;;;18.09;100.00;99720.81;5073635;28;20111;-51
2023/08/03 10:19:02;;;;;;;9.40;2.08;;;;;;;17.91;100.00;99707.19;5074217;28;20036;-50
2023/08/03 10:21:29;;;;;;;7.13;2.40;;;;;;;18.06;100.00;99756.53;5073767;28;20459;-52
2023/08/03 10:24:14;;;;;;;6.28;2.05;;;;;;;18.12;100.00;99793.34;5074038;28;20032;-53
2023/08/03 10:26:40;;;;;;;5.82;2.38;;;;;;;17.88;100.00;99792.63;5091865;28;20028;-54
2023/08/03 10:29:05;;;;;;;4.32;1.95;;;;;;;17.62;100.00;99821.28;5092177;28;20032;-52
2023/08/03 10:31:31;;;;;;;5.32;2.03;;;;;;;17.11;100.00;99766.69;5091960;28;20127;-57
2023/08/03 10:33:56;;;;;;;7.07;2.42;;;;;;;17.25;100.00;99831.16;5070245;28;20067;-52
2023/08/03 10:36:27;;;;;;;9.10;2.95;;;;;;;17.15;100.00;99832.84;5091689;28;20032;-51
2023/08/03 10:39:00;;;;;;;12.23;2.65;;;;;;;16.94;100.00;99831.78;5105049;28;20040;-55
2023/08/03 10:41:27;;;;;;;8.27;2.80;;;;;;;16.82;100.00;99825.56;5094263;28;20027;-55
2023/08/03 10:44:12;;;;;;;8.82;3.65;;;;;;;16.78;100.00;99841.84;5112301;28;20097;-53
2023/08/03 10:46:39;;;;;;;9.73;3.33;;;;;;;16.75;100.00;99844.75;5112085;28;20094;-53
2023/08/03 10:49:23;;;;;;;12.93;3.55;;;;;;;16.83;100.00;99869.78;5111976;28;20041;-50
2023/08/03 10:52:20;;;;;;;12.65;3.38;;;;;;;16.99;100.00;99860.69;5115442;28;20389;-50
2023/08/03 10:54:46;;;;;;;14.02;4.18;;;;;;;16.60;100.00;99782.94;5098358;28;20151;-55
2023/08/03 10:57:19;;;;;;;9.88;3.08;;;;;;;16.67;100.00;99809.88;5095610;28;20123;-60
2023/08/03 10:59:49;;;;;;;15.10;4.38;;;;;;;16.60;100.00;99808.66;5095156;28;20079;-51
2023/08/03 11:02:30;;;;;;;16.98;4.40;;;;;;;16.75;100.00;99820.81;5095439;28;20398;-52
2023/08/03 11:05:00;;;;;;;11.77;3.80;;;;;;;17.04;100.00;99855.88;5111236;28;20486;-58
2023/08/03 11:07:30;;;;;;;15.43;4.15;;;;;;;17.14;100.00;99870.16;5115280;28;20032;-50
2023/08/03 11:09:55;;;;;;;11.73;4.63;;;;;;;16.89;100.00;99815.31;5115286;28;20168;-52
2023/08/03 11:12:24;;;;;;;16.58;4.60;;;;;;;17.04;100.00;99843.44;5097332;28;20118;-51
2023/08/03 11:14:52;;;;;;;18.27;4.60;;;;;;;17.32;100.00;99928.16;5097267;28;20168;-54
2023/08/03 11:17:21;;;;;;;21.90;4.78;;;;;;;17.25;100.00;99918.09;5097256;28;20027;-52